createdAt,value
2017-10-18T00:00:33.903Z,11.90
2017-10-18T00:01:37.904Z,11.90
2017-10-18T00:02:42.113Z,11.90
2017-10-18T00:03:46.341Z,11.90
2017-10-18T00:04:51.069Z,11.90
2017-10-18T00:05:55.219Z,11.90
2017-10-18T00:06:59.431Z,11.90
2017-10-18T00:08:03.595Z,11.90
2017-10-18T00:09:08.630Z,11.80
2017-10-18T00:10:12.922Z,11.80
2017-10-18T00:11:17.949Z,11.80
2017-10-18T00:12:23.010Z,11.80
2017-10-18T00:13:27.262Z,11.80
2017-10-18T00:14:31.566Z,11.80
2017-10-18T00:15:35.744Z,11.80
2017-10-18T00:16:40.198Z,11.80
2017-10-18T00:17:45.155Z,11.80
2017-10-18T00:18:49.280Z,11.80
2017-10-18T00:19:53.564Z,11.80
2017-10-18T00:20:58.116Z,11.80
2017-10-18T00:22:03.186Z,11.70
2017-10-18T00:23:07.627Z,11.70
2017-10-18T00:24:12.210Z,11.70
2017-10-18T00:25:16.362Z,11.80
2017-10-18T00:26:20.473Z,11.70
2017-10-18T00:27:24.667Z,11.70
2017-10-18T00:28:28.980Z,11.70
2017-10-18T00:29:33.189Z,11.70
2017-10-18T00:30:37.518Z,11.70
2017-10-18T00:31:42.520Z,11.70
2017-10-18T00:32:46.768Z,11.70
2017-10-18T00:33:51.038Z,11.70
2017-10-18T00:34:55.544Z,11.70
2017-10-18T00:35:59.742Z,11.70
2017-10-18T00:37:04.037Z,11.70
2017-10-18T00:38:08.304Z,11.70
2017-10-18T00:39:12.436Z,11.70
2017-10-18T00:40:16.669Z,11.60
2017-10-18T00:41:20.904Z,11.60
2017-10-18T00:42:25.977Z,11.60
2017-10-18T00:43:30.129Z,11.60
2017-10-18T00:44:35.045Z,11.60
2017-10-18T00:45:40.017Z,11.60
2017-10-18T00:46:44.526Z,11.60
2017-10-18T00:47:48.788Z,11.60
2017-10-18T00:48:53.746Z,11.60
2017-10-18T00:49:58.260Z,11.60
2017-10-18T00:51:02.509Z,11.60
2017-10-18T00:52:06.750Z,11.60
2017-10-18T00:53:11.829Z,11.60
2017-10-18T00:54:16.085Z,11.60
2017-10-18T00:55:20.541Z,11.60
2017-10-18T00:56:24.726Z,11.60
2017-10-18T00:57:29.179Z,11.60
2017-10-18T00:58:33.974Z,11.60
2017-10-18T00:59:38.142Z,11.50
2017-10-18T01:00:42.297Z,11.50
2017-10-18T01:01:46.582Z,11.50
2017-10-18T01:02:50.729Z,11.50
2017-10-18T01:03:55.647Z,11.50
2017-10-18T01:05:00.994Z,11.50
2017-10-18T01:06:06.013Z,11.40
2017-10-18T01:07:10.737Z,11.40
2017-10-18T01:08:14.773Z,11.40
2017-10-18T01:09:18.824Z,11.40
2017-10-18T01:10:23.627Z,11.40
2017-10-18T01:11:28.205Z,11.40
2017-10-18T01:12:32.259Z,11.40
2017-10-18T01:13:36.387Z,11.40
2017-10-18T01:14:40.453Z,11.40
2017-10-18T01:15:45.463Z,11.40
2017-10-18T01:16:49.694Z,11.40
2017-10-18T01:17:54.660Z,11.40
2017-10-18T01:18:58.837Z,11.40
2017-10-18T01:20:03.037Z,11.40
2017-10-18T01:21:07.211Z,11.50
2017-10-18T01:22:11.947Z,11.50
2017-10-18T01:23:17.316Z,11.50
2017-10-18T01:24:21.537Z,11.50
2017-10-18T01:25:25.595Z,11.50
2017-10-18T01:26:29.612Z,11.50
2017-10-18T01:27:33.645Z,11.50
2017-10-18T01:28:37.948Z,11.50
2017-10-18T01:29:42.363Z,11.50
2017-10-18T01:30:46.410Z,11.50
2017-10-18T01:31:51.145Z,11.50
2017-10-18T01:32:55.253Z,11.50
2017-10-18T01:33:59.353Z,11.50
2017-10-18T01:35:03.367Z,11.50
2017-10-18T01:36:07.600Z,11.50
2017-10-18T01:37:11.670Z,11.50
2017-10-18T01:39:45.135Z,11.50
2017-10-18T01:40:49.217Z,11.50
2017-10-18T01:41:53.306Z,11.50
2017-10-18T01:42:57.786Z,11.50
2017-10-18T01:44:01.953Z,11.50
2017-10-18T01:45:06.201Z,11.50
2017-10-18T01:46:10.348Z,11.50
2017-10-18T01:47:15.246Z,11.50
2017-10-18T01:48:19.449Z,11.50
2017-10-18T01:49:24.050Z,11.50
2017-10-18T01:50:28.295Z,11.50
2017-10-18T01:51:33.265Z,11.50
2017-10-18T01:52:37.441Z,11.50
2017-10-18T01:53:41.737Z,11.50
2017-10-18T01:54:46.083Z,11.50
2017-10-18T01:55:51.048Z,11.50
2017-10-18T01:56:56.371Z,11.50
2017-10-18T01:58:01.377Z,11.50
2017-10-18T01:59:05.542Z,11.50
2017-10-18T02:00:09.929Z,11.50
2017-10-18T02:01:14.853Z,11.50
2017-10-18T02:02:19.876Z,11.50
2017-10-18T02:03:24.882Z,11.40
2017-10-18T02:04:29.802Z,11.40
2017-10-18T02:05:34.054Z,11.40
2017-10-18T02:06:38.249Z,11.40
2017-10-18T02:07:42.426Z,11.40
2017-10-18T02:08:47.394Z,11.40
2017-10-18T02:09:51.738Z,11.40
2017-10-18T02:10:56.226Z,11.40
2017-10-18T02:12:00.747Z,11.40
2017-10-18T02:13:05.083Z,11.40
2017-10-18T02:14:09.866Z,11.40
2017-10-18T02:15:14.885Z,11.30
2017-10-18T02:16:19.166Z,11.30
2017-10-18T02:17:23.493Z,11.30
2017-10-18T02:18:27.482Z,11.30
2017-10-18T02:19:31.514Z,11.30
2017-10-18T02:20:36.013Z,11.30
2017-10-18T02:21:40.326Z,11.30
2017-10-18T02:22:44.846Z,11.30
2017-10-18T02:23:49.062Z,11.30
2017-10-18T02:24:53.244Z,11.30
2017-10-18T02:25:57.772Z,11.30
2017-10-18T02:27:01.978Z,11.30
2017-10-18T02:28:06.172Z,11.20
2017-10-18T02:29:10.205Z,11.30
2017-10-18T02:30:14.917Z,11.30
2017-10-18T02:31:19.311Z,11.20
2017-10-18T02:32:23.975Z,11.30
2017-10-18T02:33:28.122Z,11.30
2017-10-18T02:34:32.247Z,11.20
2017-10-18T02:35:37.246Z,11.20
2017-10-18T02:36:41.568Z,11.20
2017-10-18T02:37:46.170Z,11.20
2017-10-18T02:38:50.377Z,11.20
2017-10-18T02:39:54.524Z,11.20
2017-10-18T02:40:58.678Z,11.20
2017-10-18T02:42:02.865Z,11.20
2017-10-18T02:43:07.022Z,11.20
2017-10-18T02:44:12.420Z,11.20
2017-10-18T02:45:16.566Z,11.20
2017-10-18T02:46:20.741Z,11.20
2017-10-18T02:47:26.792Z,11.10
2017-10-18T02:48:31.898Z,11.10
2017-10-18T02:49:36.223Z,11.10
2017-10-18T02:50:40.449Z,11.10
2017-10-18T02:51:44.728Z,11.10
2017-10-18T02:52:49.184Z,11.10
2017-10-18T02:53:53.646Z,11.10
2017-10-18T02:54:57.852Z,11.10
2017-10-18T02:56:02.447Z,11.10
2017-10-18T02:57:06.882Z,11.00
2017-10-18T02:58:11.110Z,11.10
2017-10-18T02:59:16.005Z,11.00
2017-10-18T03:00:20.242Z,11.00
2017-10-18T03:01:25.253Z,11.00
2017-10-18T03:02:30.668Z,11.00
2017-10-18T03:03:34.931Z,11.00
2017-10-18T03:04:39.613Z,11.00
2017-10-18T03:05:44.700Z,11.00
2017-10-18T03:06:48.921Z,11.00
2017-10-18T03:07:53.322Z,11.00
2017-10-18T03:08:57.744Z,11.00
2017-10-18T03:10:02.670Z,11.00
2017-10-18T03:11:07.076Z,11.00
2017-10-18T03:12:11.699Z,10.90
2017-10-18T03:13:16.775Z,10.90
2017-10-18T03:14:20.953Z,10.90
2017-10-18T03:15:25.254Z,11.00
2017-10-18T03:16:31.179Z,11.00
2017-10-18T03:17:36.710Z,11.00
2017-10-18T03:18:45.939Z,11.00
2017-10-18T03:19:52.129Z,11.00
2017-10-18T03:20:56.160Z,10.90
2017-10-18T03:22:00.152Z,11.00
2017-10-18T03:23:04.297Z,11.00
2017-10-18T03:24:09.214Z,10.90
2017-10-18T03:25:14.098Z,10.90
2017-10-18T03:26:18.512Z,10.90
2017-10-18T03:27:22.561Z,10.90
2017-10-18T03:28:27.398Z,10.90
2017-10-18T03:29:31.404Z,10.90
2017-10-18T03:30:35.406Z,10.90
2017-10-18T03:31:39.642Z,10.90
2017-10-18T03:32:44.304Z,10.90
2017-10-18T03:33:48.846Z,10.90
2017-10-18T03:34:53.670Z,10.90
2017-10-18T03:35:57.926Z,11.00
2017-10-18T03:37:02.894Z,10.90
2017-10-18T03:38:07.130Z,10.90
2017-10-18T03:39:11.614Z,10.90
2017-10-18T03:40:15.905Z,10.90
2017-10-18T03:41:20.185Z,10.90
2017-10-18T03:42:25.445Z,10.90
2017-10-18T03:43:29.609Z,10.90
2017-10-18T03:44:34.877Z,10.90
2017-10-18T03:45:39.606Z,10.90
2017-10-18T03:46:43.804Z,10.90
2017-10-18T03:47:48.117Z,10.90
2017-10-18T03:48:52.327Z,10.90
2017-10-18T03:49:56.580Z,10.90
2017-10-18T03:51:01.914Z,10.90
2017-10-18T03:52:07.201Z,10.90
2017-10-18T03:53:11.381Z,10.90
2017-10-18T03:54:15.897Z,10.90
2017-10-18T03:55:20.058Z,10.90
2017-10-18T03:56:25.045Z,10.90
2017-10-18T03:57:29.367Z,10.90
2017-10-18T03:58:33.498Z,10.90
2017-10-18T03:59:38.405Z,10.90
2017-10-18T04:00:42.609Z,10.90
2017-10-18T04:01:46.756Z,10.90
2017-10-18T04:02:50.945Z,10.90
2017-10-18T04:03:55.219Z,10.90
2017-10-18T04:05:00.248Z,10.90
2017-10-18T04:06:04.398Z,10.90
2017-10-18T04:07:08.660Z,10.90
2017-10-18T04:08:12.693Z,10.90
2017-10-18T04:09:16.728Z,10.90
2017-10-18T04:10:20.697Z,10.80
2017-10-18T04:11:24.745Z,10.90
2017-10-18T04:12:28.940Z,10.80
2017-10-18T04:13:32.986Z,10.80
2017-10-18T04:14:37.927Z,10.80
2017-10-18T04:15:42.141Z,10.80
2017-10-18T04:16:46.478Z,10.80
2017-10-18T04:17:50.645Z,10.80
2017-10-18T04:18:54.886Z,10.80
2017-10-18T04:19:59.151Z,10.80
2017-10-18T04:21:03.437Z,10.80
2017-10-18T04:22:08.441Z,10.80
2017-10-18T04:23:13.407Z,10.80
2017-10-18T04:24:17.713Z,10.80
2017-10-18T04:25:21.907Z,10.80
2017-10-18T04:26:26.105Z,10.80
2017-10-18T04:27:31.007Z,10.70
2017-10-18T04:28:36.295Z,10.70
2017-10-18T04:29:40.516Z,10.70
2017-10-18T04:30:44.649Z,10.70
2017-10-18T04:31:49.578Z,10.70
2017-10-18T04:32:54.335Z,10.70
2017-10-18T04:33:58.681Z,10.60
2017-10-18T04:35:02.745Z,10.60
2017-10-18T04:36:06.928Z,10.60
2017-10-18T04:37:10.982Z,10.50
2017-10-18T04:38:14.963Z,10.50
2017-10-18T04:39:19.032Z,10.50
2017-10-18T04:40:23.090Z,10.50
2017-10-18T04:41:27.482Z,10.50
2017-10-18T04:42:31.756Z,10.50
2017-10-18T04:43:35.962Z,10.50
2017-10-18T04:44:39.961Z,10.50
2017-10-18T04:45:43.944Z,10.50
2017-10-18T04:46:48.245Z,10.50
2017-10-18T04:47:52.386Z,10.50
2017-10-18T04:48:56.451Z,10.50
2017-10-18T04:50:00.430Z,10.50
2017-10-18T04:51:05.213Z,10.50
2017-10-18T04:52:09.316Z,10.50
2017-10-18T04:53:13.354Z,10.50
2017-10-18T04:54:17.408Z,10.60
2017-10-18T04:55:21.381Z,10.50
2017-10-18T04:56:25.488Z,10.50
2017-10-18T04:57:29.575Z,10.40
2017-10-18T04:58:34.378Z,10.40
2017-10-18T04:59:38.648Z,10.40
2017-10-18T05:00:42.917Z,10.40
2017-10-18T05:01:47.035Z,10.40
2017-10-18T05:02:51.233Z,10.40
2017-10-18T05:03:55.388Z,10.40
2017-10-18T05:05:00.630Z,10.40
2017-10-18T05:06:05.542Z,10.40
2017-10-18T05:07:10.640Z,10.40
2017-10-18T05:08:14.699Z,10.40
2017-10-18T05:09:18.734Z,10.40
2017-10-18T05:10:22.793Z,10.40
2017-10-18T05:11:27.923Z,10.40
2017-10-18T05:12:32.063Z,10.40
2017-10-18T05:13:36.191Z,10.40
2017-10-18T05:14:40.256Z,10.40
2017-10-18T05:15:44.454Z,10.40
2017-10-18T05:16:48.637Z,10.30
2017-10-18T05:17:53.753Z,10.40
2017-10-18T05:18:58.693Z,10.30
2017-10-18T05:20:02.874Z,10.30
2017-10-18T05:21:07.814Z,10.30
2017-10-18T05:22:12.770Z,10.30
2017-10-18T05:23:16.795Z,10.30
2017-10-18T05:24:20.826Z,10.30
2017-10-18T05:25:25.593Z,10.30
2017-10-18T05:26:29.701Z,10.30
2017-10-18T05:27:34.348Z,10.30
2017-10-18T05:28:38.963Z,10.30
2017-10-18T05:29:43.796Z,10.30
2017-10-18T05:30:48.011Z,10.30
2017-10-18T05:31:51.991Z,10.30
2017-10-18T05:32:56.987Z,10.30
2017-10-18T05:34:01.825Z,10.30
2017-10-18T05:35:05.833Z,10.30
2017-10-18T05:36:10.658Z,10.30
2017-10-18T05:37:15.470Z,10.30
2017-10-18T05:38:20.290Z,10.30
2017-10-18T05:39:24.387Z,10.30
2017-10-18T05:40:28.466Z,10.30
2017-10-18T05:41:32.564Z,10.30
2017-10-18T05:42:36.579Z,10.30
2017-10-18T05:43:40.636Z,10.30
2017-10-18T05:44:44.821Z,10.30
2017-10-18T05:45:49.198Z,10.40
2017-10-18T05:46:53.210Z,10.40
2017-10-18T05:47:57.313Z,10.40
2017-10-18T05:49:02.119Z,10.40
2017-10-18T05:50:06.179Z,10.40
2017-10-18T05:51:10.278Z,10.40
2017-10-18T05:52:14.614Z,10.40
2017-10-18T05:53:18.612Z,10.50
2017-10-18T05:54:22.676Z,10.50
2017-10-18T05:55:26.748Z,10.50
2017-10-18T05:56:31.643Z,10.50
2017-10-18T05:57:36.079Z,10.50
2017-10-18T05:58:40.934Z,10.50
2017-10-18T05:59:45.022Z,10.50
2017-10-18T06:00:49.218Z,10.50
2017-10-18T06:01:54.087Z,10.50
2017-10-18T06:02:58.388Z,10.50
2017-10-18T06:04:02.842Z,10.50
2017-10-18T06:05:07.821Z,10.50
2017-10-18T06:06:11.984Z,10.50
2017-10-18T06:07:16.925Z,10.60
2017-10-18T06:08:21.207Z,10.60
2017-10-18T06:09:26.269Z,10.60
2017-10-18T06:10:30.780Z,10.60
2017-10-18T06:11:35.004Z,10.60
2017-10-18T06:12:39.196Z,10.60
2017-10-18T06:13:43.495Z,10.60
2017-10-18T06:14:47.788Z,10.60
2017-10-18T06:15:52.010Z,10.60
2017-10-18T06:16:56.228Z,10.60
2017-10-18T06:18:00.672Z,10.60
2017-10-18T06:19:05.793Z,10.60
2017-10-18T06:20:10.111Z,10.60
2017-10-18T06:21:15.132Z,10.70
2017-10-18T06:22:20.170Z,10.70
2017-10-18T06:23:26.259Z,10.70
2017-10-18T06:24:30.536Z,10.70
2017-10-18T06:25:34.794Z,10.70
2017-10-18T06:26:38.947Z,10.70
2017-10-18T06:27:43.027Z,10.70
2017-10-18T06:28:47.484Z,10.70
2017-10-18T06:29:51.538Z,10.80
2017-10-18T06:30:56.542Z,10.80
2017-10-18T06:32:00.722Z,10.80
2017-10-18T06:33:05.060Z,10.80
2017-10-18T06:34:09.139Z,10.80
2017-10-18T06:35:13.190Z,10.80
2017-10-18T06:36:18.101Z,10.80
2017-10-18T06:37:22.230Z,10.80
2017-10-18T06:38:26.291Z,10.80
2017-10-18T06:39:30.659Z,10.90
2017-10-18T06:40:34.905Z,10.90
2017-10-18T06:41:39.991Z,10.90
2017-10-18T06:42:44.385Z,10.90
2017-10-18T06:43:48.737Z,10.90
2017-10-18T06:44:53.047Z,11.00
2017-10-18T06:45:57.267Z,11.00
2017-10-18T06:47:02.342Z,11.00
2017-10-18T06:48:07.110Z,11.00
2017-10-18T06:49:11.872Z,11.00
2017-10-18T06:50:15.962Z,11.00
2017-10-18T06:51:19.981Z,11.10
2017-10-18T06:52:24.299Z,11.10
2017-10-18T06:53:28.543Z,11.10
2017-10-18T06:54:33.562Z,11.10
2017-10-18T06:55:37.809Z,11.10
2017-10-18T06:56:41.949Z,11.10
2017-10-18T06:57:46.112Z,11.10
2017-10-18T06:58:50.134Z,11.20
2017-10-18T06:59:54.293Z,11.20
2017-10-18T07:00:58.341Z,11.20
2017-10-18T07:02:02.489Z,11.20
2017-10-18T07:03:07.530Z,11.30
2017-10-18T07:04:11.582Z,11.20
2017-10-18T07:05:15.683Z,11.30
2017-10-18T07:06:19.888Z,11.30
2017-10-18T07:07:24.475Z,11.30
2017-10-18T07:08:28.747Z,11.30
2017-10-18T07:09:33.423Z,11.40
2017-10-18T07:10:37.751Z,11.40
2017-10-18T07:11:42.027Z,11.40
2017-10-18T07:12:46.318Z,11.40
2017-10-18T07:13:50.624Z,11.40
2017-10-18T07:14:55.267Z,11.40
2017-10-18T07:15:59.459Z,11.40
2017-10-18T07:17:03.673Z,11.50
2017-10-18T07:18:07.850Z,11.50
2017-10-18T07:19:12.805Z,11.50
2017-10-18T07:20:17.454Z,11.50
2017-10-18T07:21:22.549Z,11.60
2017-10-18T07:22:26.786Z,11.60
2017-10-18T07:23:31.917Z,11.70
2017-10-18T07:24:36.243Z,11.60
2017-10-18T07:25:40.897Z,11.70
2017-10-18T07:26:45.206Z,11.70
2017-10-18T07:27:49.461Z,11.70
2017-10-18T07:28:53.777Z,11.70
2017-10-18T07:29:58.008Z,11.70
2017-10-18T07:31:02.668Z,11.70
2017-10-18T07:32:08.005Z,11.70
2017-10-18T07:33:13.057Z,11.70
2017-10-18T07:34:17.030Z,11.70
2017-10-18T07:35:21.987Z,11.70
2017-10-18T07:36:26.069Z,11.70
2017-10-18T07:37:30.627Z,11.70
2017-10-18T07:38:34.711Z,11.80
2017-10-18T07:39:38.763Z,11.80
2017-10-18T07:40:43.588Z,11.80
2017-10-18T07:41:48.566Z,11.80
2017-10-18T07:42:53.244Z,11.80
2017-10-18T07:43:57.486Z,11.80
2017-10-18T07:45:01.609Z,11.80
2017-10-18T07:46:05.756Z,11.80
2017-10-18T07:47:09.959Z,11.90
2017-10-18T07:48:14.386Z,11.90
2017-10-18T07:49:18.800Z,11.90
2017-10-18T07:50:22.848Z,11.90
2017-10-18T07:51:27.902Z,11.90
2017-10-18T07:52:33.032Z,11.90
2017-10-18T07:53:38.030Z,12.00
2017-10-18T07:54:43.203Z,12.00
2017-10-18T07:55:47.843Z,12.00
2017-10-18T07:56:51.993Z,12.00
2017-10-18T07:57:56.231Z,12.10
2017-10-18T07:59:00.425Z,12.10
2017-10-18T08:00:04.592Z,12.10
2017-10-18T08:01:09.921Z,12.20
2017-10-18T08:02:14.736Z,12.20
2017-10-18T08:03:19.629Z,12.30
2017-10-18T08:04:23.699Z,12.30
2017-10-18T08:05:27.862Z,12.30
2017-10-18T08:06:32.828Z,12.40
2017-10-18T08:07:37.438Z,12.40
2017-10-18T08:08:41.728Z,12.50
2017-10-18T08:09:45.882Z,12.50
2017-10-18T08:10:50.036Z,12.50
2017-10-18T08:11:54.209Z,12.60
2017-10-18T08:12:58.385Z,12.60
2017-10-18T08:14:02.583Z,12.60
2017-10-18T08:15:06.784Z,12.70
2017-10-18T08:16:10.837Z,12.70
2017-10-18T08:17:15.602Z,12.70
2017-10-18T08:18:20.695Z,12.70
2017-10-18T08:19:25.384Z,12.80
2017-10-18T08:20:29.653Z,12.80
2017-10-18T08:21:33.903Z,12.90
2017-10-18T08:22:39.798Z,12.90
2017-10-18T08:23:44.063Z,12.90
2017-10-18T08:24:49.442Z,13.00
2017-10-18T08:25:53.722Z,13.00
2017-10-18T08:26:57.930Z,13.10
2017-10-18T08:28:02.098Z,13.10
2017-10-18T08:29:07.181Z,13.20
2017-10-18T08:30:11.230Z,13.20
2017-10-18T08:31:16.055Z,13.30
2017-10-18T08:32:21.395Z,13.30
2017-10-18T08:33:26.266Z,13.40
2017-10-18T08:34:30.412Z,13.30
2017-10-18T08:35:35.717Z,13.40
2017-10-18T08:36:39.751Z,13.50
2017-10-18T08:37:44.746Z,13.60
2017-10-18T08:38:49.027Z,13.50
2017-10-18T08:39:53.190Z,13.60
2017-10-18T08:40:57.906Z,13.70
2017-10-18T08:42:02.113Z,13.70
2017-10-18T08:43:06.363Z,13.80
2017-10-18T08:44:10.731Z,13.90
2017-10-18T08:45:15.044Z,13.90
2017-10-18T08:46:19.593Z,13.90
2017-10-18T08:47:23.901Z,14.00
2017-10-18T08:48:28.694Z,14.00
2017-10-18T08:49:32.869Z,14.10
2017-10-18T08:50:37.046Z,14.20
2017-10-18T08:51:42.159Z,14.30
2017-10-18T08:52:46.270Z,14.30
2017-10-18T08:53:50.346Z,14.40
2017-10-18T08:54:54.482Z,14.50
2017-10-18T08:55:58.489Z,14.60
2017-10-18T08:57:03.358Z,14.80
2017-10-18T08:58:07.874Z,14.80
2017-10-18T08:59:11.903Z,14.90
2017-10-18T09:00:15.977Z,15.00
2017-10-18T09:01:20.241Z,15.10
2017-10-18T09:02:25.335Z,15.30
2017-10-18T09:03:30.526Z,15.40
2017-10-18T09:04:34.836Z,15.30
2017-10-18T09:05:39.142Z,15.50
2017-10-18T09:06:43.378Z,15.50
2017-10-18T09:07:47.646Z,15.60
2017-10-18T09:08:51.881Z,15.70
2017-10-18T09:09:56.464Z,15.80
2017-10-18T09:11:00.697Z,15.80
2017-10-18T09:12:04.879Z,15.90
2017-10-18T09:13:08.896Z,16.00
2017-10-18T09:14:12.950Z,16.10
2017-10-18T09:15:18.105Z,16.20
2017-10-18T09:16:22.167Z,16.20
2017-10-18T09:17:26.998Z,16.40
2017-10-18T09:18:31.857Z,16.50
2017-10-18T09:19:35.969Z,16.50
2017-10-18T09:20:41.138Z,16.60
2017-10-18T09:21:46.445Z,16.70
2017-10-18T09:22:50.666Z,16.70
2017-10-18T09:23:55.956Z,16.90
2017-10-18T09:25:00.263Z,17.00
2017-10-18T09:26:05.083Z,17.00
2017-10-18T09:27:09.316Z,17.10
2017-10-18T09:28:13.557Z,17.20
2017-10-18T09:29:17.722Z,17.30
2017-10-18T09:30:21.972Z,17.40
2017-10-18T09:31:26.574Z,17.50
2017-10-18T09:32:31.525Z,17.60
2017-10-18T09:33:36.189Z,17.60
2017-10-18T09:34:41.349Z,17.80
2017-10-18T09:35:45.624Z,17.80
2017-10-18T09:36:50.882Z,18.00
2017-10-18T09:37:58.247Z,18.00
2017-10-18T09:39:04.965Z,18.10
2017-10-18T09:40:11.259Z,18.10
2017-10-18T09:41:17.649Z,18.20
2017-10-18T09:42:21.910Z,18.30
2017-10-18T09:43:28.721Z,18.50
2017-10-18T09:44:33.936Z,18.40
2017-10-18T09:45:40.757Z,18.70
2017-10-18T09:46:45.819Z,18.80
2017-10-18T09:47:51.134Z,18.80
2017-10-18T09:48:57.197Z,19.10
2017-10-18T09:50:01.984Z,19.00
2017-10-18T09:51:07.000Z,19.10
2017-10-18T09:52:13.075Z,19.10
2017-10-18T09:53:19.464Z,19.30
2017-10-18T09:54:25.290Z,19.40
2017-10-18T09:55:33.295Z,19.50
2017-10-18T09:56:38.903Z,19.40
2017-10-18T09:57:44.243Z,19.60
2017-10-18T09:58:49.009Z,19.70
2017-10-18T09:59:53.154Z,19.70
2017-10-18T10:00:58.298Z,19.80
2017-10-18T10:02:03.133Z,19.90
2017-10-18T10:03:07.271Z,19.90
2017-10-18T10:04:11.424Z,20.00
2017-10-18T10:05:15.893Z,20.10
2017-10-18T10:06:20.410Z,20.30
2017-10-18T10:07:24.648Z,20.40
2017-10-18T10:08:28.814Z,20.60
2017-10-18T10:09:33.939Z,21.00
2017-10-18T10:10:38.149Z,20.90
2017-10-18T10:11:42.603Z,21.10
2017-10-18T10:12:47.334Z,21.30
2017-10-18T10:13:52.412Z,21.80
2017-10-18T10:14:56.719Z,21.80
2017-10-18T10:16:01.813Z,22.40
2017-10-18T10:17:06.275Z,22.40
2017-10-18T10:18:11.620Z,22.90
2017-10-18T10:19:15.910Z,22.80
2017-10-18T10:20:20.932Z,23.10
2017-10-18T10:21:25.875Z,23.30
2017-10-18T10:22:30.232Z,23.20
2017-10-18T10:23:35.786Z,23.30
2017-10-18T10:24:40.335Z,23.50
2017-10-18T10:25:44.557Z,23.80
2017-10-18T10:26:48.783Z,23.90
2017-10-18T10:27:53.086Z,24.20
2017-10-18T10:28:57.854Z,24.40
2017-10-18T10:30:02.920Z,24.90
2017-10-18T10:31:07.183Z,24.90
2017-10-18T10:32:12.132Z,25.40
2017-10-18T10:33:16.380Z,25.40
2017-10-18T10:34:21.569Z,25.60
2017-10-18T10:35:25.862Z,25.90
2017-10-18T10:36:29.999Z,26.00
2017-10-18T10:37:34.277Z,26.30
2017-10-18T10:38:38.441Z,26.50
2017-10-18T10:39:44.002Z,26.60
2017-10-18T10:40:48.178Z,26.60
2017-10-18T10:41:52.371Z,26.70
2017-10-18T10:42:56.798Z,26.90
2017-10-18T10:44:00.969Z,26.90
2017-10-18T10:45:05.705Z,27.10
2017-10-18T10:46:09.751Z,27.20
2017-10-18T10:47:13.769Z,27.50
2017-10-18T10:48:17.775Z,27.70
2017-10-18T10:49:21.917Z,27.90
2017-10-18T10:50:26.082Z,28.10
2017-10-18T10:51:30.541Z,28.40
2017-10-18T10:52:35.401Z,28.50
2017-10-18T10:53:40.277Z,28.60
2017-10-18T10:54:44.610Z,28.60
2017-10-18T10:55:50.263Z,28.70
2017-10-18T10:56:55.027Z,28.70
2017-10-18T10:57:59.330Z,28.80
2017-10-18T10:59:03.544Z,28.60
2017-10-18T11:00:07.857Z,29.00
2017-10-18T11:01:12.112Z,29.10
2017-10-18T11:02:16.267Z,29.30
2017-10-18T11:03:21.016Z,29.60
2017-10-18T11:04:25.473Z,29.50
2017-10-18T11:05:29.672Z,29.20
2017-10-18T11:06:33.839Z,29.20
2017-10-18T11:07:38.843Z,29.70
2017-10-18T11:08:44.421Z,29.90
2017-10-18T11:09:48.659Z,29.90
2017-10-18T11:10:52.913Z,30.30
2017-10-18T11:11:57.236Z,30.40
2017-10-18T11:13:01.606Z,30.50
2017-10-18T11:14:06.869Z,30.40
2017-10-18T11:15:11.131Z,30.40
2017-10-18T11:16:15.145Z,30.40
2017-10-18T11:17:19.914Z,30.60
2017-10-18T11:18:24.164Z,30.60
2017-10-18T11:19:29.512Z,30.40
2017-10-18T11:20:33.768Z,30.40
2017-10-18T11:21:38.004Z,29.90
2017-10-18T11:22:42.677Z,29.30
2017-10-18T11:23:46.898Z,28.70
2017-10-18T11:24:51.563Z,28.40
2017-10-18T11:25:56.557Z,28.50
2017-10-18T11:27:00.854Z,28.50
2017-10-18T11:28:05.186Z,28.60
2017-10-18T11:29:09.984Z,28.00
2017-10-18T11:30:14.073Z,28.00
2017-10-18T11:31:18.291Z,27.60
2017-10-18T11:32:23.286Z,27.20
2017-10-18T11:33:27.321Z,26.90
2017-10-18T11:34:33.469Z,26.60
2017-10-18T11:35:38.013Z,26.30
2017-10-18T11:36:42.918Z,26.00
2017-10-18T11:37:47.784Z,26.00
2017-10-18T11:38:52.075Z,26.00
2017-10-18T11:39:56.391Z,25.90
2017-10-18T11:41:00.921Z,25.80
2017-10-18T11:42:04.970Z,25.80
2017-10-18T11:43:09.921Z,25.50
2017-10-18T11:44:13.930Z,25.50
2017-10-18T11:45:17.977Z,25.40
2017-10-18T11:46:22.508Z,25.20
2017-10-18T11:47:27.497Z,25.00
2017-10-18T11:48:31.741Z,25.00
2017-10-18T11:49:36.797Z,24.60
2017-10-18T11:50:40.964Z,24.60
2017-10-18T11:51:46.100Z,24.40
2017-10-18T11:52:51.150Z,24.20
2017-10-18T11:53:55.466Z,24.20
2017-10-18T11:54:59.766Z,24.20
2017-10-18T11:56:04.011Z,24.20
2017-10-18T11:57:08.639Z,24.10
2017-10-18T11:58:12.895Z,24.00
2017-10-18T11:59:17.125Z,24.00
2017-10-18T12:00:21.370Z,23.90
2017-10-18T12:01:26.381Z,23.70
2017-10-18T12:02:31.486Z,23.60
2017-10-18T12:03:35.673Z,23.60
2017-10-18T12:04:42.483Z,23.60
2017-10-18T12:05:46.904Z,23.50
2017-10-18T12:06:51.758Z,23.40
2017-10-18T12:08:03.107Z,23.40
2017-10-18T12:09:07.531Z,23.30
2017-10-18T12:10:11.999Z,23.20
2017-10-18T12:11:16.237Z,23.20
2017-10-18T12:12:20.435Z,23.20
2017-10-18T12:13:25.002Z,23.20
2017-10-18T12:14:29.262Z,23.10
2017-10-18T12:15:47.936Z,23.00
2017-10-18T12:16:52.313Z,23.00
2017-10-18T12:17:56.760Z,22.90
2017-10-18T12:19:02.299Z,22.80
2017-10-18T12:20:06.416Z,22.80
2017-10-18T12:21:11.270Z,22.80
2017-10-18T12:22:16.209Z,22.70
2017-10-18T12:23:20.530Z,22.70
2017-10-18T12:24:25.271Z,22.70
2017-10-18T12:25:29.674Z,22.60
2017-10-18T12:26:33.984Z,22.60
2017-10-18T12:27:38.318Z,22.50
2017-10-18T12:28:43.353Z,22.50
2017-10-18T12:29:48.920Z,22.50
2017-10-18T12:30:52.998Z,22.50
2017-10-18T12:31:57.840Z,22.40
2017-10-18T12:33:01.950Z,22.40
2017-10-18T12:34:06.053Z,22.40
2017-10-18T12:35:10.609Z,22.40
2017-10-18T12:36:14.709Z,22.30
2017-10-18T12:37:18.766Z,22.30
2017-10-18T12:38:22.819Z,22.20
2017-10-18T12:39:27.746Z,22.20
2017-10-18T12:40:32.397Z,22.20
2017-10-18T12:41:36.503Z,22.20
2017-10-18T12:42:40.568Z,22.10
2017-10-18T12:43:45.400Z,22.10
2017-10-18T12:44:50.186Z,22.00
2017-10-18T12:45:54.638Z,22.00
2017-10-18T12:46:58.783Z,22.00
2017-10-18T12:48:02.970Z,22.00
2017-10-18T12:49:07.186Z,21.90
2017-10-18T12:50:11.642Z,21.90
2017-10-18T12:51:17.068Z,21.80
2017-10-18T12:52:21.997Z,21.80
2017-10-18T12:53:48.629Z,21.80
2017-10-18T12:55:44.474Z,21.80
2017-10-18T12:56:49.121Z,21.70
2017-10-18T12:57:53.423Z,21.70
2017-10-18T12:58:57.659Z,21.70
2017-10-18T13:00:01.961Z,21.70
2017-10-18T13:01:06.149Z,21.70
2017-10-18T13:02:10.844Z,21.70
2017-10-18T13:03:15.056Z,21.70
2017-10-18T13:04:19.375Z,21.70
2017-10-18T13:05:24.504Z,21.70
2017-10-18T13:06:28.909Z,21.70
2017-10-18T13:07:33.687Z,21.70
2017-10-18T13:08:37.968Z,21.70
2017-10-18T13:09:43.130Z,21.70
2017-10-18T13:10:47.274Z,21.70
2017-10-18T13:11:51.301Z,21.80
2017-10-18T13:12:56.504Z,21.80
2017-10-18T13:14:00.589Z,21.80
2017-10-18T13:15:04.649Z,21.80
2017-10-18T13:16:08.938Z,21.80
2017-10-18T13:17:12.998Z,21.80
2017-10-18T13:18:17.410Z,21.80
2017-10-18T13:19:21.542Z,21.70
2017-10-18T13:20:26.228Z,21.70
2017-10-18T13:21:30.546Z,21.70
2017-10-18T13:22:34.732Z,21.70
2017-10-18T13:23:39.301Z,21.70
2017-10-18T13:24:44.392Z,21.60
2017-10-18T13:25:48.595Z,21.60
2017-10-18T13:26:52.838Z,21.60
2017-10-18T13:27:57.843Z,21.60
2017-10-18T13:29:02.799Z,21.50
2017-10-18T13:30:07.081Z,21.60
2017-10-18T13:31:11.312Z,21.50
2017-10-18T13:32:15.419Z,21.50
2017-10-18T13:33:19.494Z,21.40
2017-10-18T13:34:24.744Z,21.40
2017-10-18T13:35:28.872Z,21.40
2017-10-18T13:36:33.111Z,21.40
2017-10-18T13:37:37.143Z,21.40
2017-10-18T13:38:42.067Z,21.40
2017-10-18T13:39:47.475Z,21.40
2017-10-18T13:40:51.612Z,21.30
2017-10-18T13:42:00.454Z,21.30
2017-10-18T13:43:07.292Z,21.30
2017-10-18T13:44:13.550Z,21.30
2017-10-18T13:45:21.572Z,21.30
2017-10-18T13:46:26.877Z,21.30
2017-10-18T13:47:32.792Z,21.30
2017-10-18T13:48:40.241Z,21.30
2017-10-18T13:49:44.710Z,21.30
2017-10-18T13:50:50.301Z,21.30
2017-10-18T13:51:54.922Z,21.30
2017-10-18T13:53:00.284Z,21.30
2017-10-18T13:54:05.501Z,21.30